PKWA/KWA METAR and TAF weather

Enter ICAO airport designator
Station Type Date Time Source
PKWA METAR 2019/02/20 17:20 UTC NOAA

PKWA 201720Z AUTO 06014G20KT 7SM +RA BKN025 BKN035 OVC043 27/23 A2982 RMK AO2 T02680231


Station Type Date Time Source
PKWA Decoded METAR 2019/02/20 17:20 UTC NOAA

Kwajalein, Bucholz AAF, Kwajalein KMR ATOL Airport, Marshall Islands (PKWA) 08-43N 167-44E 2M
Feb 20, 2019 - 12:20 PM EST / 2019.02.20 1720 UTC
Wind: from the ENE (060 degrees) at 16 MPH (14 KT) gusting to 23 MPH (20 KT):0
Visibility: 7 mile(s):0
Sky conditions: overcast
Weather: heavy rain
Temperature: 80.2 F (26.8 C)
Dew Point: 73.6 F (23.1 C)
Relative Humidity: 80%
Pressure (altimeter): 29.82 in. Hg (1009 hPa)
ob: PKWA 201720Z AUTO 06014G20KT 7SM +RA BKN025 BKN035 OVC043 27/23 A2982 RMK AO2 T02680231
cycle: 17

Station Type Date Time Source
PKWA TAF 2019/02/20 12:40 UTC NOAA

TAF PKWA 201133Z 2012/2112 08014G22KT P6SM VCSH SCT025 SCT050


Example: see airport list